Terminal Aerodrome Forecast
Issued by NWS Buffalo, NY

Home | Current Version | Previous Version | Text Only | Print | Product List | Glossary On
Versions: 1 2 3 4 5 6 7 8 9 10 11 12 13 14 15 16 17 18 19 20 21 22 23 24 25 26 27 28 29 30
016
FTUS41 KBUF 262334
TAFART
TAF
KART 262334Z 2700/2724 13008KT P6SM BKN025 WS020/17040KT
     FM270500 16010KT 6SM -SHRA OVC020 WS020/19045KT
     FM270900 16009KT 6SM -SHRA OVC015 WS020/20040KT
     FM271400 16008KT 6SM -SHRA OVC012
     FM271800 19006KT P6SM VCSH OVC012
     FM272200 VRB03KT P6SM VCSH OVC012=

USA.gov is the U.S. government's official web portal to all federal, state and local government web resources and services.